createdAt,value
2018-06-14T00:00:29.394Z,75.83
2018-06-14T00:02:22.310Z,75.83
2018-06-14T00:03:22.334Z,75.64
2018-06-14T00:05:15.258Z,75.64
2018-06-14T00:06:15.254Z,75.83
2018-06-14T00:08:08.161Z,75.45
2018-06-14T00:09:08.181Z,75.83
2018-06-14T00:11:01.107Z,76.31
2018-06-14T00:12:01.105Z,76.37
2018-06-14T00:13:54.012Z,76.08
2018-06-14T00:14:54.030Z,76.37
2018-06-14T00:16:46.958Z,76.18
2018-06-14T00:17:46.953Z,75.79
2018-06-14T00:19:39.879Z,76.46
2018-06-14T00:20:39.879Z,76.27
2018-06-14T00:22:32.784Z,76.18
2018-06-14T00:23:32.804Z,76.27
2018-06-14T00:25:25.731Z,76.94
2018-06-14T00:26:25.729Z,76.84
2018-06-14T00:28:18.633Z,77.61
2018-06-14T00:29:18.652Z,77.03
2018-06-14T00:31:11.580Z,77.13
2018-06-14T00:32:11.629Z,76.94
2018-06-14T00:34:04.484Z,76.84
2018-06-14T00:35:04.506Z,77.51
2018-06-14T00:36:57.429Z,77.03
2018-06-14T00:37:57.427Z,76.94
2018-06-14T00:39:50.332Z,77.03
2018-06-14T00:40:50.351Z,76.84
2018-06-14T00:42:43.291Z,76.94
2018-06-14T00:43:43.282Z,77.80
2018-06-14T00:45:36.209Z,77.03
2018-06-14T00:46:36.209Z,77.03
2018-06-14T00:48:29.114Z,76.84
2018-06-14T00:49:29.135Z,77.03
2018-06-14T00:51:22.060Z,77.03
2018-06-14T00:52:22.059Z,76.75
2018-06-14T00:54:14.964Z,76.65
2018-06-14T00:55:14.984Z,76.65
2018-06-14T00:57:07.907Z,76.56
2018-06-14T00:58:07.909Z,76.27
2018-06-14T01:00:00.812Z,76.65
2018-06-14T01:01:00.830Z,76.52
2018-06-14T01:02:53.756Z,76.65
2018-06-14T01:03:53.754Z,76.62
2018-06-14T01:05:46.694Z,77.00
2018-06-14T01:06:46.681Z,76.81
2018-06-14T01:08:39.586Z,77.09
2018-06-14T01:09:39.604Z,76.90
2018-06-14T01:11:32.530Z,77.09
2018-06-14T01:12:32.527Z,77.19
2018-06-14T01:14:25.449Z,77.38
2018-06-14T01:15:25.454Z,77.19
2018-06-14T01:17:18.381Z,77.86
2018-06-14T01:18:18.378Z,77.00
2018-06-14T01:20:11.283Z,77.19
2018-06-14T01:21:11.301Z,77.76
2018-06-14T01:23:04.231Z,77.76
2018-06-14T01:24:04.228Z,76.42
2018-06-14T01:25:57.132Z,77.28
2018-06-14T01:26:57.151Z,77.00
2018-06-14T01:28:50.074Z,77.38
2018-06-14T01:29:50.076Z,77.38
2018-06-14T01:31:43.998Z,77.47
2018-06-14T01:32:43.992Z,77.67
2018-06-14T01:34:36.893Z,77.86
2018-06-14T01:35:36.912Z,77.00
2018-06-14T01:37:29.840Z,78.58
2018-06-14T01:38:29.839Z,77.72
2018-06-14T01:40:22.745Z,77.53
2018-06-14T01:41:22.764Z,77.53
2018-06-14T01:43:15.687Z,77.91
2018-06-14T01:44:15.685Z,77.82
2018-06-14T01:46:08.588Z,77.53
2018-06-14T01:47:08.605Z,77.72
2018-06-14T01:49:01.534Z,77.53
2018-06-14T01:50:01.533Z,77.91
2018-06-14T01:51:54.439Z,77.34
2018-06-14T01:52:54.454Z,78.39
2018-06-14T01:54:47.375Z,78.01
2018-06-14T01:55:47.376Z,78.01
2018-06-14T01:57:40.298Z,78.58
2018-06-14T01:58:40.296Z,78.30
2018-06-14T02:00:33.199Z,78.39
2018-06-14T02:01:33.217Z,78.39
2018-06-14T02:03:26.140Z,78.58
2018-06-14T02:04:26.138Z,78.20
2018-06-14T02:06:19.042Z,78.58
2018-06-14T02:07:19.059Z,78.67
2018-06-14T02:09:11.998Z,78.86
2018-06-14T02:10:11.990Z,78.58
2018-06-14T02:12:04.893Z,79.68
2018-06-14T02:13:04.914Z,79.88
2018-06-14T02:14:57.834Z,80.35
2018-06-14T02:15:57.834Z,80.73
2018-06-14T02:17:50.740Z,80.35
2018-06-14T02:18:50.760Z,80.54
2018-06-14T02:20:43.688Z,80.54
2018-06-14T02:21:43.680Z,80.73
2018-06-14T02:23:36.603Z,79.97
2018-06-14T02:24:36.608Z,79.88
2018-06-14T02:26:29.512Z,79.97
2018-06-14T02:27:29.523Z,79.88
2018-06-14T02:29:22.447Z,79.97
2018-06-14T02:30:22.445Z,79.78
2018-06-14T02:32:15.347Z,79.97
2018-06-14T02:33:15.368Z,79.68
2018-06-14T02:35:08.289Z,80.35
2018-06-14T02:36:08.286Z,79.88
2018-06-14T02:38:01.188Z,80.73
2018-06-14T02:39:01.208Z,80.83
2018-06-14T02:40:54.128Z,81.12
2018-06-14T02:41:54.123Z,81.21
2018-06-14T02:43:47.026Z,81.21
2018-06-14T02:44:47.048Z,80.83
2018-06-14T02:46:39.967Z,81.21
2018-06-14T02:47:39.974Z,80.64
2018-06-14T02:49:32.888Z,81.12
2018-06-14T02:50:32.886Z,81.12
2018-06-14T02:52:25.786Z,81.12
2018-06-14T02:53:25.807Z,80.92
2018-06-14T02:55:18.729Z,81.88
2018-06-14T02:56:18.727Z,81.21
2018-06-14T02:58:11.630Z,81.78
2018-06-14T02:59:11.647Z,81.59
2018-06-14T03:01:04.572Z,81.30
2018-06-14T03:02:04.572Z,81.68
2018-06-14T03:03:57.472Z,80.92
2018-06-14T03:04:57.489Z,81.78
2018-06-14T03:06:50.416Z,81.88
2018-06-14T03:07:50.413Z,81.49
2018-06-14T03:09:43.317Z,81.78
2018-06-14T03:10:43.334Z,81.21
2018-06-14T03:12:36.263Z,80.64
2018-06-14T03:13:36.255Z,80.64
2018-06-14T03:15:29.182Z,80.83
2018-06-14T03:16:29.177Z,81.02
2018-06-14T03:18:22.082Z,80.54
2018-06-14T03:19:22.098Z,80.73
2018-06-14T03:21:15.019Z,80.16
2018-06-14T03:22:15.020Z,80.35
2018-06-14T03:24:07.921Z,80.54
2018-06-14T03:25:07.941Z,80.07
2018-06-14T03:27:00.862Z,80.44
2018-06-14T03:28:00.863Z,80.73
2018-06-14T03:29:53.785Z,80.44
2018-06-14T03:30:53.781Z,80.54
2018-06-14T03:32:46.704Z,81.40
2018-06-14T03:33:46.702Z,81.21
2018-06-14T03:35:39.624Z,81.49
2018-06-14T03:36:39.622Z,81.30
2018-06-14T03:38:32.527Z,81.30
2018-06-14T03:39:32.547Z,81.30
2018-06-14T03:41:25.470Z,81.25
2018-06-14T03:42:25.465Z,81.15
2018-06-14T03:44:18.369Z,80.68
2018-06-14T03:45:18.387Z,80.49
2018-06-14T03:47:11.312Z,81.15
2018-06-14T03:48:11.311Z,81.25
2018-06-14T03:50:04.214Z,80.33
2018-06-14T03:51:04.236Z,80.15
2018-06-14T03:52:57.155Z,79.00
2018-06-14T03:53:57.156Z,78.52
2018-06-14T03:55:50.058Z,77.86
2018-06-14T03:56:50.075Z,78.05
2018-06-14T03:58:43.000Z,77.57
2018-06-14T03:59:42.999Z,77.61
2018-06-14T04:01:35.930Z,77.55
2018-06-14T04:02:35.922Z,76.31
2018-06-14T04:04:28.837Z,76.16
2018-06-14T04:05:28.856Z,75.68
2018-06-14T04:07:21.785Z,74.48
2018-06-14T04:08:21.784Z,72.94
2018-06-14T04:10:14.697Z,71.16
2018-06-14T04:11:14.711Z,70.68
2018-06-14T04:13:07.635Z,69.64
2018-06-14T04:14:07.635Z,69.48
2018-06-14T04:16:00.545Z,69.76
2018-06-14T04:17:00.566Z,69.09
2018-06-14T04:18:53.685Z,68.33
2018-06-14T04:19:53.678Z,68.52
2018-06-14T04:21:46.585Z,68.52
2018-06-14T04:22:46.605Z,69.19
2018-06-14T04:24:39.533Z,69.06
2018-06-14T04:25:39.558Z,69.92
2018-06-14T04:27:32.549Z,70.78
2018-06-14T04:28:32.462Z,70.68
2018-06-14T04:30:25.371Z,70.68
2018-06-14T04:31:25.393Z,70.11
2018-06-14T04:33:18.326Z,70.78
2018-06-14T04:34:18.322Z,70.87
2018-06-14T04:36:11.232Z,69.38
2018-06-14T04:37:11.252Z,69.32
2018-06-14T04:39:05.185Z,67.72
2018-06-14T04:40:05.185Z,66.67
2018-06-14T04:41:58.093Z,65.71
2018-06-14T04:42:58.116Z,64.76
2018-06-14T04:44:51.052Z,65.14
2018-06-14T04:45:51.059Z,65.81
2018-06-14T04:47:43.985Z,65.62
2018-06-14T04:48:43.987Z,66.45
2018-06-14T04:50:36.911Z,66.54
2018-06-14T04:51:36.915Z,66.93
2018-06-14T04:53:30.369Z,66.67
2018-06-14T04:54:30.351Z,66.67
2018-06-14T04:56:23.272Z,65.55
2018-06-14T04:57:23.283Z,65.30
2018-06-14T04:59:16.219Z,61.98
2018-06-14T05:00:16.218Z,61.11
2018-06-14T05:02:09.137Z,61.11
2018-06-14T05:03:09.163Z,61.02
2018-06-14T05:05:02.096Z,62.13
2018-06-14T05:06:02.107Z,63.00
2018-06-14T05:07:55.051Z,62.90
2018-06-14T05:08:55.047Z,63.00
2018-06-14T05:10:47.968Z,63.19
2018-06-14T05:11:47.992Z,63.92
2018-06-14T05:13:40.970Z,63.67
2018-06-14T05:14:40.938Z,63.57
2018-06-14T05:16:33.850Z,63.09
2018-06-14T05:17:33.873Z,62.81
2018-06-14T05:19:26.813Z,63.19
2018-06-14T05:20:26.819Z,63.03
2018-06-14T05:22:19.734Z,62.93
2018-06-14T05:23:19.761Z,62.01
2018-06-14T05:25:12.696Z,60.50
2018-06-14T05:26:12.706Z,60.34
2018-06-14T05:28:05.626Z,58.35
2018-06-14T05:29:05.648Z,58.25
2018-06-14T05:30:58.589Z,57.03
2018-06-14T05:31:58.596Z,55.90
2018-06-14T05:33:51.536Z,54.97
2018-06-14T05:34:51.541Z,53.91
2018-06-14T05:36:44.493Z,53.84
2018-06-14T05:37:44.494Z,53.07
2018-06-14T05:39:37.444Z,52.33
2018-06-14T05:40:37.453Z,51.94
2018-06-14T05:42:30.403Z,51.17
2018-06-14T05:43:30.407Z,51.07
2018-06-14T05:45:23.349Z,50.62
2018-06-14T05:46:23.355Z,50.06
2018-06-14T05:48:16.283Z,49.58
2018-06-14T05:49:16.313Z,49.19
2018-06-14T05:51:09.263Z,48.93
2018-06-14T05:52:09.271Z,48.35
2018-06-14T05:54:02.197Z,48.47
2018-06-14T05:55:02.225Z,47.31
2018-06-14T05:56:55.176Z,47.05
2018-06-14T05:57:55.180Z,46.75
2018-06-14T05:59:48.125Z,46.85
2018-06-14T06:00:48.142Z,47.07
2018-06-14T06:02:41.063Z,45.91
2018-06-14T06:03:41.091Z,45.14
2018-06-14T06:05:34.045Z,45.91
2018-06-14T06:06:34.054Z,45.42
2018-06-14T06:08:26.983Z,46.10
2018-06-14T06:09:27.012Z,46.78
2018-06-14T06:11:19.963Z,46.95
2018-06-14T06:12:19.970Z,46.85
2018-06-14T06:14:12.894Z,47.05
2018-06-14T06:15:12.925Z,46.08
2018-06-14T06:17:05.868Z,46.85
2018-06-14T06:18:05.878Z,46.78
2018-06-14T06:19:58.805Z,46.68
2018-06-14T06:20:58.836Z,45.64
2018-06-14T06:22:51.783Z,45.76
2018-06-14T06:23:51.793Z,45.28
2018-06-14T06:25:44.748Z,44.43
2018-06-14T06:26:44.753Z,45.30
2018-06-14T06:28:37.679Z,44.45
2018-06-14T06:29:37.712Z,44.26
2018-06-14T06:31:30.665Z,43.77
2018-06-14T06:32:30.672Z,43.38
2018-06-14T06:34:23.602Z,43.02
2018-06-14T06:35:23.635Z,42.44
2018-06-14T06:37:16.589Z,42.82
2018-06-14T06:38:16.596Z,42.07
2018-06-14T06:40:09.550Z,41.97
2018-06-14T06:41:09.559Z,41.88
2018-06-14T06:43:02.496Z,42.26
2018-06-14T06:44:02.531Z,41.58
2018-06-14T06:45:55.495Z,42.07
2018-06-14T06:46:55.507Z,41.86
2018-06-14T06:48:48.444Z,41.86
2018-06-14T06:49:48.474Z,41.56
2018-06-14T06:51:41.431Z,42.14
2018-06-14T06:52:41.443Z,42.34
2018-06-14T06:54:34.377Z,41.68
2018-06-14T06:55:34.412Z,41.95
2018-06-14T06:57:27.363Z,41.95
2018-06-14T06:58:27.378Z,42.05
2018-06-14T07:00:20.334Z,42.14
2018-06-14T07:01:20.345Z,42.44
2018-06-14T07:03:13.277Z,42.51
2018-06-14T07:04:13.312Z,42.82
2018-06-14T07:06:06.341Z,41.56
2018-06-14T07:07:06.281Z,41.27
2018-06-14T07:08:59.231Z,42.05
2018-06-14T07:09:59.256Z,41.95
2018-06-14T07:11:52.242Z,41.66
2018-06-14T07:12:52.329Z,40.59
2018-06-14T07:14:45.156Z,41.39
2018-06-14T07:15:45.189Z,41.10
2018-06-14T07:17:38.148Z,39.45
2018-06-14T07:18:38.158Z,39.57
2018-06-14T07:20:31.116Z,39.57
2018-06-14T07:21:31.145Z,39.18
2018-06-14T07:23:24.063Z,38.21
2018-06-14T07:24:24.097Z,38.04
2018-06-14T07:26:17.056Z,37.16
2018-06-14T07:27:17.067Z,37.16
2018-06-14T07:29:10.005Z,37.34
2018-06-14T07:30:10.044Z,37.26
2018-06-14T07:32:02.991Z,37.43
2018-06-14T07:33:03.004Z,37.23
2018-06-14T07:34:55.938Z,38.00
2018-06-14T07:35:55.967Z,37.81
2018-06-14T07:37:48.917Z,37.81
2018-06-14T07:38:48.931Z,37.88
2018-06-14T07:40:41.883Z,38.27
2018-06-14T07:41:41.888Z,38.56
2018-06-14T07:43:34.819Z,38.64
2018-06-14T07:44:34.845Z,39.32
2018-06-14T07:46:27.792Z,39.90
2018-06-14T07:47:27.803Z,39.51
2018-06-14T07:49:20.732Z,40.00
2018-06-14T07:50:20.760Z,39.12
2018-06-14T07:52:13.703Z,39.11
2018-06-14T07:53:13.715Z,39.11
2018-06-14T07:55:06.709Z,38.79
2018-06-14T07:56:06.671Z,39.57
2018-06-14T07:57:59.621Z,39.86
2018-06-14T07:58:59.627Z,41.21
2018-06-14T08:00:52.559Z,40.25
2018-06-14T08:01:52.581Z,40.63
2018-06-14T08:03:45.525Z,41.48
2018-06-14T08:04:45.533Z,41.89
2018-06-14T08:06:38.476Z,40.34
2018-06-14T08:07:38.484Z,40.44
2018-06-14T08:09:31.405Z,40.15
2018-06-14T08:10:31.436Z,40.34
2018-06-14T08:12:24.482Z,40.63
2018-06-14T08:13:24.389Z,39.09
2018-06-14T08:15:17.312Z,40.63
2018-06-14T08:16:17.340Z,41.60
2018-06-14T08:18:10.283Z,41.99
2018-06-14T08:19:10.290Z,42.18
2018-06-14T08:21:03.215Z,40.83
2018-06-14T08:22:03.240Z,41.79
2018-06-14T08:23:56.185Z,41.91
2018-06-14T08:24:56.192Z,40.84
2018-06-14T08:26:49.143Z,40.26
2018-06-14T08:27:49.146Z,40.84
2018-06-14T08:29:42.065Z,38.91
2018-06-14T08:30:42.094Z,40.65
2018-06-14T08:32:35.034Z,40.26
2018-06-14T08:33:35.043Z,40.75
2018-06-14T08:35:27.962Z,40.09
2018-06-14T08:36:27.991Z,39.59
2018-06-14T08:38:20.964Z,38.81
2018-06-14T08:39:20.940Z,39.01
2018-06-14T08:41:13.865Z,39.12
2018-06-14T08:42:13.889Z,39.41
2018-06-14T08:44:06.834Z,39.22
2018-06-14T08:45:06.839Z,38.93
2018-06-14T08:46:59.761Z,38.23
2018-06-14T08:47:59.789Z,38.54
2018-06-14T08:49:52.739Z,39.41
2018-06-14T08:50:52.742Z,38.83
2018-06-14T08:52:45.683Z,38.45
2018-06-14T08:53:45.691Z,38.73
2018-06-14T08:55:38.614Z,38.95
2018-06-14T08:56:38.643Z,38.27
2018-06-14T08:58:31.594Z,38.48
2018-06-14T08:59:31.600Z,38.39
2018-06-14T09:01:24.527Z,36.64
2018-06-14T09:02:24.554Z,36.64
2018-06-14T09:04:17.498Z,36.76
2018-06-14T09:05:17.506Z,35.59
2018-06-14T09:07:10.437Z,36.08
2018-06-14T09:08:10.465Z,35.32
2018-06-14T09:10:03.412Z,35.51
2018-06-14T09:11:03.420Z,35.61
2018-06-14T09:12:56.342Z,35.05
2018-06-14T09:13:56.374Z,35.14
2018-06-14T09:15:49.321Z,35.33
2018-06-14T09:16:49.328Z,33.88
2018-06-14T09:18:42.289Z,33.78
2018-06-14T09:19:42.283Z,33.98
2018-06-14T09:21:35.211Z,33.94
2018-06-14T09:22:35.236Z,34.62
2018-06-14T09:24:28.189Z,35.30
2018-06-14T09:25:28.192Z,35.59
2018-06-14T09:27:21.118Z,35.69
2018-06-14T09:28:21.151Z,35.11
2018-06-14T09:30:14.093Z,34.89
2018-06-14T09:31:14.103Z,34.31
2018-06-14T09:33:07.030Z,34.30
2018-06-14T09:34:07.058Z,35.07
2018-06-14T09:36:00.009Z,35.44
2018-06-14T09:37:00.016Z,35.15
2018-06-14T09:38:52.941Z,35.35
2018-06-14T09:39:52.970Z,35.93
2018-06-14T09:41:45.921Z,35.83
2018-06-14T09:42:45.972Z,36.10
2018-06-14T09:44:38.878Z,36.00
2018-06-14T09:45:38.880Z,36.30
2018-06-14T09:47:31.808Z,36.49
2018-06-14T09:48:31.836Z,36.08
2018-06-14T09:50:24.810Z,37.54
2018-06-14T09:51:24.793Z,36.96
2018-06-14T09:53:17.718Z,37.34
2018-06-14T09:54:17.748Z,37.24
2018-06-14T09:56:10.700Z,37.34
2018-06-14T09:57:10.701Z,37.24
2018-06-14T09:59:03.629Z,37.42
2018-06-14T10:00:03.656Z,38.10
2018-06-14T10:01:56.607Z,38.29
2018-06-14T10:02:56.610Z,38.20
2018-06-14T10:04:49.535Z,38.60
2018-06-14T10:05:49.567Z,38.12
2018-06-14T10:07:42.510Z,37.73
2018-06-14T10:08:42.516Z,37.44
2018-06-14T10:10:35.465Z,37.13
2018-06-14T10:11:35.468Z,37.32
2018-06-14T10:13:28.394Z,37.90
2018-06-14T10:14:28.425Z,38.21
2018-06-14T10:16:21.367Z,38.12
2018-06-14T10:17:21.375Z,37.54
2018-06-14T10:19:14.301Z,37.94
2018-06-14T10:20:14.326Z,37.67
2018-06-14T10:22:07.273Z,36.41
2018-06-14T10:23:07.282Z,36.14
2018-06-14T10:25:00.207Z,35.77
2018-06-14T10:26:00.234Z,35.38
2018-06-14T10:27:53.180Z,34.61
2018-06-14T10:28:53.187Z,35.19
2018-06-14T10:30:46.140Z,34.43
2018-06-14T10:31:46.144Z,34.23
2018-06-14T10:33:39.069Z,33.86
2018-06-14T10:34:39.101Z,33.47
2018-06-14T10:36:32.049Z,33.20
2018-06-14T10:37:32.055Z,33.29
2018-06-14T10:39:24.986Z,32.92
2018-06-14T10:40:25.011Z,32.24
2018-06-14T10:42:17.964Z,32.24
2018-06-14T10:43:17.975Z,32.15
2018-06-14T10:45:10.898Z,32.54
2018-06-14T10:46:10.928Z,31.47
2018-06-14T10:48:03.873Z,31.37
2018-06-14T10:49:03.886Z,30.98
2018-06-14T10:50:56.836Z,31.47
2018-06-14T10:51:56.843Z,32.44
2018-06-14T10:53:49.773Z,31.47
2018-06-14T10:54:49.802Z,31.37
2018-06-14T10:56:42.756Z,30.61
2018-06-14T10:57:42.761Z,30.02
2018-06-14T10:59:35.692Z,31.10
2018-06-14T11:00:35.723Z,29.44
2018-06-14T11:02:28.676Z,29.33
2018-06-14T11:03:28.687Z,30.30
2018-06-14T11:05:21.620Z,29.32
2018-06-14T11:06:21.650Z,30.68
2018-06-14T11:08:14.607Z,31.45
2018-06-14T11:09:14.615Z,31.35
2018-06-14T11:11:07.546Z,30.77
2018-06-14T11:12:07.572Z,31.05
2018-06-14T11:14:00.523Z,31.26
2018-06-14T11:15:00.526Z,31.63
2018-06-14T11:16:53.481Z,32.89
2018-06-14T11:17:53.488Z,32.23
2018-06-14T11:19:46.419Z,31.07
2018-06-14T11:20:46.448Z,31.26
2018-06-14T11:22:39.402Z,31.15
2018-06-14T11:23:39.404Z,31.23
2018-06-14T11:25:32.331Z,32.59
2018-06-14T11:26:32.359Z,32.20
2018-06-14T11:28:25.313Z,32.12
2018-06-14T11:29:25.318Z,31.63
2018-06-14T11:31:18.246Z,32.12
2018-06-14T11:32:18.274Z,32.12
2018-06-14T11:34:11.222Z,32.60
2018-06-14T11:35:11.233Z,32.60
2018-06-14T11:37:04.185Z,32.32
2018-06-14T11:38:04.191Z,32.23
2018-06-14T11:39:57.117Z,31.55
2018-06-14T11:40:57.144Z,31.45
2018-06-14T11:42:50.097Z,31.45
2018-06-14T11:43:50.103Z,31.35
2018-06-14T11:45:43.038Z,31.16
2018-06-14T11:46:43.071Z,30.68
2018-06-14T11:48:36.019Z,31.16
2018-06-14T11:49:36.025Z,31.16
2018-06-14T11:51:28.962Z,31.35
2018-06-14T11:52:28.981Z,31.07
2018-06-14T11:54:21.934Z,31.55
2018-06-14T11:55:21.937Z,31.35
2018-06-14T11:57:14.867Z,31.08
2018-06-14T11:58:14.898Z,31.37
2018-06-14T12:00:07.852Z,31.27
2018-06-14T12:01:07.861Z,31.16
2018-06-14T12:03:00.807Z,31.34
2018-06-14T12:04:00.810Z,31.35
2018-06-14T12:05:53.739Z,32.21
2018-06-14T12:06:53.768Z,32.60
2018-06-14T12:08:46.720Z,32.20
2018-06-14T12:09:46.726Z,32.59
2018-06-14T12:11:39.651Z,32.86
2018-06-14T12:12:39.686Z,33.64
2018-06-14T12:14:32.638Z,34.61
2018-06-14T12:15:32.648Z,33.84
2018-06-14T12:17:25.575Z,33.56
2018-06-14T12:18:25.600Z,33.47
2018-06-14T12:20:18.552Z,29.69
2018-06-14T12:21:18.577Z,32.81
2018-06-14T12:23:11.488Z,29.40
2018-06-14T12:24:11.518Z,32.41
2018-06-14T12:26:04.469Z,32.89
2018-06-14T12:27:04.473Z,32.87
2018-06-14T12:28:57.436Z,33.84
2018-06-14T12:29:57.433Z,33.75
2018-06-14T12:31:50.359Z,33.09
2018-06-14T12:32:50.387Z,33.17
2018-06-14T12:34:43.339Z,32.79
2018-06-14T12:35:43.343Z,32.99
2018-06-14T12:37:36.283Z,32.79
2018-06-14T12:38:36.308Z,32.60
2018-06-14T12:40:29.259Z,32.99
2018-06-14T12:41:29.266Z,33.28
2018-06-14T12:43:22.193Z,32.21
2018-06-14T12:44:22.222Z,32.12
2018-06-14T12:46:15.175Z,32.70
2018-06-14T12:47:15.180Z,32.89
2018-06-14T12:49:08.110Z,32.91
2018-06-14T12:50:08.138Z,32.79
2018-06-14T12:52:01.091Z,32.52
2018-06-14T12:53:01.098Z,33.49
2018-06-14T12:54:54.059Z,32.32
2018-06-14T12:55:54.056Z,32.23
2018-06-14T12:57:46.987Z,32.34
2018-06-14T12:58:47.015Z,32.44
2018-06-14T13:00:39.971Z,32.05
2018-06-14T13:01:39.974Z,32.05
2018-06-14T13:03:32.906Z,31.85
2018-06-14T13:04:32.932Z,31.57
2018-06-14T13:06:25.887Z,31.68
2018-06-14T13:07:25.892Z,31.38
2018-06-14T13:09:18.823Z,31.29
2018-06-14T13:10:18.851Z,31.29
2018-06-14T13:12:11.810Z,31.00
2018-06-14T13:13:11.811Z,31.30
2018-06-14T13:15:04.741Z,30.72
2018-06-14T13:16:04.772Z,30.43
2018-06-14T13:17:57.727Z,30.91
2018-06-14T13:18:57.740Z,30.43
2018-06-14T13:20:50.698Z,31.50
2018-06-14T13:21:50.706Z,31.70
2018-06-14T13:23:43.637Z,31.40
2018-06-14T13:24:43.667Z,31.60
2018-06-14T13:26:36.627Z,30.61
2018-06-14T13:27:36.639Z,31.19
2018-06-14T13:29:29.569Z,31.37
2018-06-14T13:30:29.697Z,31.57
2018-06-14T13:32:22.560Z,32.64
2018-06-14T13:33:22.560Z,32.81
2018-06-14T13:35:15.517Z,33.11
2018-06-14T13:36:15.522Z,33.01
2018-06-14T13:38:08.473Z,33.29
2018-06-14T13:39:08.478Z,33.39
2018-06-14T13:41:01.432Z,32.91
2018-06-14T13:42:01.437Z,33.59
2018-06-14T13:43:54.365Z,33.29
2018-06-14T13:44:54.395Z,33.01
2018-06-14T13:46:47.350Z,33.02
2018-06-14T13:47:47.450Z,33.22
2018-06-14T13:49:40.286Z,32.82
2018-06-14T13:50:40.325Z,33.31
2018-06-14T13:52:33.265Z,33.02
2018-06-14T13:53:33.275Z,32.82
2018-06-14T13:55:26.265Z,32.92
2018-06-14T13:56:26.235Z,33.70
2018-06-14T13:58:19.188Z,33.41
2018-06-14T13:59:19.193Z,32.92
2018-06-14T14:01:12.205Z,33.31
2018-06-14T14:02:12.159Z,32.92
2018-06-14T14:04:05.112Z,33.80
2018-06-14T14:05:05.153Z,33.04
2018-06-14T14:06:58.074Z,32.94
2018-06-14T14:07:58.075Z,32.26
2018-06-14T14:09:51.228Z,32.84
2018-06-14T14:10:51.236Z,33.06
2018-06-14T14:12:44.241Z,32.67
2018-06-14T14:13:44.198Z,31.50
2018-06-14T14:15:37.130Z,31.01
2018-06-14T14:16:37.161Z,31.70
2018-06-14T14:18:30.114Z,31.97
2018-06-14T14:19:30.120Z,32.44
2018-06-14T14:21:23.053Z,32.82
2018-06-14T14:22:23.081Z,32.82
2018-06-14T14:24:16.034Z,33.31
2018-06-14T14:25:16.040Z,33.41
2018-06-14T14:27:08.972Z,32.82
2018-06-14T14:28:09.002Z,33.12
2018-06-14T14:30:01.958Z,33.31
2018-06-14T14:31:01.965Z,32.84
2018-06-14T14:32:54.918Z,33.04
2018-06-14T14:33:54.925Z,32.84
2018-06-14T14:35:47.855Z,32.84
2018-06-14T14:36:47.973Z,33.33
2018-06-14T14:38:40.841Z,32.65
2018-06-14T14:39:40.846Z,32.64
2018-06-14T14:41:33.824Z,32.82
2018-06-14T14:42:33.857Z,33.90
2018-06-14T14:44:26.812Z,34.28
2018-06-14T14:45:26.821Z,34.87
2018-06-14T14:47:19.755Z,33.90
2018-06-14T14:48:19.784Z,33.99
2018-06-14T14:50:13.227Z,33.51
2018-06-14T14:51:13.241Z,33.41
2018-06-14T14:53:06.256Z,32.73
2018-06-14T14:54:06.207Z,33.02
2018-06-14T14:55:59.137Z,32.64
2018-06-14T14:56:59.168Z,32.44
2018-06-14T14:58:52.122Z,32.82
2018-06-14T14:59:52.137Z,33.41
2018-06-14T15:01:45.559Z,32.73
2018-06-14T15:02:45.591Z,33.41
2018-06-14T15:04:38.544Z,33.69
2018-06-14T15:05:38.555Z,33.59
2018-06-14T15:07:31.498Z,34.56
2018-06-14T15:08:31.528Z,34.17
2018-06-14T15:10:26.007Z,34.17
2018-06-14T15:11:26.021Z,34.16
2018-06-14T15:13:19.044Z,34.93
2018-06-14T15:14:19.080Z,34.93
2018-06-14T15:16:12.029Z,35.11
2018-06-14T15:17:12.072Z,35.41
2018-06-14T15:19:06.485Z,35.98
2018-06-14T15:20:06.488Z,36.46
2018-06-14T15:21:59.444Z,36.83
2018-06-14T15:22:59.479Z,36.83
2018-06-14T15:24:53.439Z,37.69
2018-06-14T15:25:53.471Z,38.17
2018-06-14T15:27:46.992Z,38.46
2018-06-14T15:28:47.019Z,38.46
2018-06-14T15:30:40.475Z,39.14
2018-06-14T15:31:40.487Z,39.04
2018-06-14T15:33:33.514Z,39.03
2018-06-14T15:34:33.544Z,39.03
2018-06-14T15:36:26.588Z,38.73
2018-06-14T15:37:26.597Z,38.83
2018-06-14T15:39:19.642Z,39.61
2018-06-14T15:40:19.654Z,39.12
2018-06-14T15:42:12.683Z,40.48
2018-06-14T15:43:12.717Z,41.24
2018-06-14T15:45:05.755Z,44.33
2018-06-14T15:46:05.769Z,44.53
2018-06-14T15:47:59.240Z,47.50
2018-06-14T15:48:59.235Z,48.95
2018-06-14T15:50:52.282Z,50.12
2018-06-14T15:51:52.291Z,50.86
2018-06-14T15:53:46.243Z,52.41
2018-06-14T15:54:46.272Z,54.05
2018-06-14T15:56:39.728Z,54.90
2018-06-14T15:57:39.735Z,54.03
2018-06-14T15:59:34.227Z,56.25
2018-06-14T16:00:34.224Z,56.63
2018-06-14T16:02:27.250Z,58.35
2018-06-14T16:03:27.278Z,58.73
2018-06-14T16:05:20.736Z,58.32
2018-06-14T16:06:20.744Z,59.16
2018-06-14T16:08:13.774Z,60.51
2018-06-14T16:09:13.805Z,61.77
2018-06-14T16:11:06.852Z,62.02
2018-06-14T16:12:06.858Z,63.85
2018-06-14T16:13:59.886Z,63.73
2018-06-14T16:14:59.915Z,65.91
2018-06-14T16:16:52.961Z,66.27
2018-06-14T16:17:52.971Z,67.23
2018-06-14T16:19:45.999Z,68.84
2018-06-14T16:20:46.028Z,69.02
2018-06-14T16:22:39.074Z,71.24
2018-06-14T16:23:39.082Z,71.49
2018-06-14T16:25:32.007Z,71.97
2018-06-14T16:26:32.039Z,72.26
2018-06-14T16:28:25.495Z,73.22
2018-06-14T16:29:25.500Z,74.57
2018-06-14T16:31:18.963Z,75.54
2018-06-14T16:32:18.968Z,73.99
2018-06-14T16:34:12.009Z,75.40
2018-06-14T16:35:12.029Z,75.92
2018-06-14T16:37:05.072Z,76.40
2018-06-14T16:38:05.081Z,77.08
2018-06-14T16:39:58.113Z,75.98
2018-06-14T16:40:58.137Z,76.59
2018-06-14T16:42:51.085Z,77.08
2018-06-14T16:43:51.094Z,76.59
2018-06-14T16:45:45.132Z,76.40
2018-06-14T16:46:44.556Z,76.50
2018-06-14T16:48:37.504Z,77.04
2018-06-14T16:49:37.512Z,76.94
2018-06-14T16:51:30.476Z,77.42
2018-06-14T16:52:30.504Z,78.48
2018-06-14T16:54:23.493Z,77.42
2018-06-14T16:55:23.521Z,77.81
2018-06-14T16:57:16.466Z,78.00
2018-06-14T16:58:16.469Z,79.05
2018-06-14T17:00:09.406Z,78.67
2018-06-14T17:01:09.427Z,78.77
2018-06-14T17:03:02.493Z,79.25
2018-06-14T17:04:02.387Z,80.54
2018-06-14T17:05:55.312Z,78.13
2018-06-14T17:06:55.340Z,79.10
2018-06-14T17:08:48.386Z,78.13
2018-06-14T17:09:48.397Z,78.42
2018-06-14T17:11:41.358Z,77.26
2018-06-14T17:12:41.352Z,78.03
2018-06-14T17:14:34.378Z,78.13
2018-06-14T17:15:34.404Z,77.56
2018-06-14T17:17:27.354Z,77.75
2018-06-14T17:18:27.359Z,77.08
2018-06-14T17:20:20.804Z,77.81
2018-06-14T17:21:20.826Z,77.81
2018-06-14T17:23:13.771Z,78.28
2018-06-14T17:24:13.779Z,78.83
2018-06-14T17:26:08.246Z,79.30
2018-06-14T17:27:08.268Z,79.92
2018-06-14T17:29:01.215Z,80.07
2018-06-14T17:30:01.223Z,80.50
2018-06-14T17:31:55.691Z,79.79
2018-06-14T17:32:55.721Z,79.60
2018-06-14T17:34:48.772Z,80.40
2018-06-14T17:35:48.771Z,79.44
2018-06-14T17:37:41.753Z,80.36
2018-06-14T17:38:41.725Z,80.60
2018-06-14T17:40:34.652Z,79.92
2018-06-14T17:41:34.764Z,79.53
2018-06-14T17:43:27.686Z,80.40
2018-06-14T17:44:27.633Z,80.60
2018-06-14T17:46:20.566Z,80.02
2018-06-14T17:47:20.586Z,79.73
2018-06-14T17:49:13.548Z,79.53
2018-06-14T17:50:13.618Z,79.82
2018-06-14T17:52:06.469Z,80.60
2018-06-14T17:53:06.494Z,80.40
2018-06-14T17:54:59.968Z,79.53
2018-06-14T17:55:59.980Z,79.73
2018-06-14T17:57:52.889Z,79.53
2018-06-14T17:58:52.916Z,79.44
2018-06-14T18:00:46.986Z,79.35
2018-06-14T18:01:46.949Z,79.53
2018-06-14T18:03:39.983Z,80.63
2018-06-14T18:04:39.949Z,79.82
2018-06-14T18:06:34.444Z,80.44
2018-06-14T18:07:35.086Z,80.63
2018-06-14T18:09:27.910Z,80.02
2018-06-14T18:10:27.910Z,80.40
2018-06-14T18:12:20.985Z,80.40
2018-06-14T18:13:21.004Z,80.60
2018-06-14T18:15:14.029Z,80.54
2018-06-14T18:16:14.018Z,80.50
2018-06-14T18:18:07.753Z,80.54
2018-06-14T18:19:07.779Z,80.54
2018-06-14T18:21:01.423Z,80.35
2018-06-14T18:22:01.373Z,80.54
2018-06-14T18:23:54.802Z,80.73
2018-06-14T18:24:54.826Z,81.30
2018-06-14T18:26:48.810Z,80.73
2018-06-14T18:27:48.812Z,80.54
2018-06-14T18:29:41.892Z,81.02
2018-06-14T18:30:41.944Z,81.12
2018-06-14T18:32:34.920Z,80.54
2018-06-14T18:33:34.917Z,80.35